Time;durP1;ratioP1;P1;durP2;ratioP2;P2;SDS_P1;SDS_P2;PMS_P1;PMS_P2;Temp;Humidity;BMP_temperature;BMP_pressure;BME280_temperature;BME280_humidity;BME280_pressure;Samples;Min_cycle;Max_cycle;Signal;HPM_P1;HPM_P2
2022/08/28 00:01:01;;;;;;;13.50;5.13;;;;;;;-148.88;86.54;75704.09;5100500;28;20114;-79
2022/08/28 00:03:27;;;;;;;13.82;5.55;;;;;;;-148.88;87.01;75716.28;5100414;28;20477;-78
2022/08/28 00:05:52;;;;;;;14.63;5.05;;;;;;;-148.88;87.04;75716.28;5118733;28;20041;-79
2022/08/28 00:08:18;;;;;;;11.63;5.72;;;;;;;-148.88;87.58;75728.47;5117467;28;20019;-79
2022/08/28 00:10:44;;;;;;;14.73;5.60;;;;;;;-148.88;88.38;75740.66;5118029;28;20481;-78
2022/08/28 00:13:17;;;;;;;17.55;5.65;;;;;;;-148.88;88.50;75752.84;5099884;28;20027;-79
2022/08/28 00:15:44;;;;;;;12.10;5.35;;;;;;;-148.88;88.72;75756.91;5100294;28;20015;-79
2022/08/28 00:18:13;;;;;;;12.30;5.45;;;;;;;-148.88;88.72;75765.03;5099598;28;20092;-79
2022/08/28 00:20:39;;;;;;;17.88;5.68;;;;;;;-148.88;88.84;75769.09;5100555;28;20042;-79
2022/08/28 00:23:05;;;;;;;19.40;5.90;;;;;;;-148.88;89.07;75773.16;5100213;28;20076;-79
2022/08/28 00:25:32;;;;;;;12.05;5.50;;;;;;;-148.88;89.14;75773.16;5100076;28;20020;-80
2022/08/28 00:28:01;;;;;;;15.20;5.95;;;;;;;-148.88;89.46;75779.25;5118723;28;20028;-79
2022/08/28 00:30:42;;;;;;;14.15;5.20;;;;;;;-148.88;89.17;75779.25;5099755;28;20031;-79
2022/08/28 00:33:18;;;;;;;15.07;5.72;;;;;;;-148.88;89.09;75775.19;5118635;28;20027;-80
2022/08/28 00:35:46;;;;;;;15.18;5.53;;;;;;;-148.88;89.22;75781.28;5118399;28;20020;-79
2022/08/28 00:38:21;;;;;;;14.88;5.60;;;;;;;-148.88;89.25;75775.19;5099318;28;20444;-79
2022/08/28 00:40:49;;;;;;;14.93;5.53;;;;;;;-148.88;89.39;75773.16;5118680;28;20032;-79
2022/08/28 00:43:46;;;;;;;12.73;5.85;;;;;;;-148.88;89.36;75777.22;5099913;28;20031;-79
2022/08/28 00:46:23;;;;;;;12.68;5.70;;;;;;;-148.88;89.00;75765.03;5104645;28;20043;-78
2022/08/28 00:48:51;;;;;;;20.98;6.40;;;;;;;-148.88;89.00;75765.03;5099247;28;20435;-79
2022/08/28 00:54:05;;;;;;;13.82;5.40;;;;;;;-148.88;89.58;75767.06;5117767;28;20390;-79
2022/08/28 00:56:34;;;;;;;15.25;6.43;;;;;;;-148.88;89.31;75765.03;5117923;28;20026;-79
2022/08/28 00:59:09;;;;;;;18.35;6.18;;;;;;;-148.88;89.26;75763.00;5099301;28;20020;-80
2022/08/28 01:01:34;;;;;;;17.98;5.72;;;;;;;-148.88;89.40;75769.09;5117844;28;20062;-80
2022/08/28 01:04:01;;;;;;;14.98;5.40;;;;;;;-148.88;89.14;75763.00;5116367;28;20077;-80
2022/08/28 01:06:29;;;;;;;11.57;5.63;;;;;;;-148.88;89.43;75769.09;5099120;28;20031;-79
2022/08/28 01:08:58;;;;;;;18.25;5.82;;;;;;;-148.88;89.37;75773.16;5099122;28;20091;-79
2022/08/28 01:11:27;;;;;;;17.30;6.05;;;;;;;-148.88;89.63;75781.28;5117082;28;20120;-80
2022/08/28 01:13:55;;;;;;;14.73;5.60;;;;;;;-148.88;89.90;75785.34;5099026;28;20046;-80
2022/08/28 01:16:22;;;;;;;13.18;5.68;;;;;;;-148.88;89.91;75781.28;5117455;28;20068;-80
2022/08/28 01:18:50;;;;;;;13.23;5.75;;;;;;;-148.88;90.13;75791.44;5099357;28;20118;-79
2022/08/28 01:21:35;;;;;;;10.75;5.20;;;;;;;-148.88;90.58;75801.59;5117633;28;20032;-79
2022/08/28 01:24:07;;;;;;;16.38;6.20;;;;;;;-148.88;90.92;75813.78;5117111;28;20103;-79
2022/08/28 01:26:33;;;;;;;14.50;5.70;;;;;;;-148.88;91.18;75821.91;5098088;28;20110;-78
2022/08/28 01:28:59;;;;;;;15.32;6.28;;;;;;;-148.88;91.52;75825.97;5116090;28;20047;-79
2022/08/28 01:31:27;;;;;;;12.57;5.60;;;;;;;-148.88;91.65;75832.06;5098506;28;20028;-79
2022/08/28 01:33:53;;;;;;;11.18;5.57;;;;;;;-148.88;91.87;75834.09;5117097;28;20016;-79
2022/08/28 01:36:19;;;;;;;16.05;6.15;;;;;;;-148.88;92.11;75840.19;5116986;28;20059;-79
2022/08/28 01:38:49;;;;;;;17.35;6.07;;;;;;;-148.88;91.96;75834.09;5098198;28;20034;-80
2022/08/28 01:41:15;;;;;;;12.80;6.05;;;;;;;-148.88;92.19;75842.22;5117137;28;20024;-80
2022/08/28 01:43:42;;;;;;;14.63;6.15;;;;;;;-148.88;92.25;75850.34;5098844;28;20019;-79
2022/08/28 01:46:08;;;;;;;16.45;5.70;;;;;;;-148.88;92.46;75854.41;5098617;28;20027;-79
2022/08/28 01:48:36;;;;;;;16.02;6.50;;;;;;;-148.88;92.02;75846.28;5116756;28;20028;-79
2022/08/28 01:51:04;;;;;;;13.70;5.40;;;;;;;-148.88;92.18;75846.28;5116761;28;20022;-80
2022/08/28 01:53:36;;;;;;;12.52;5.47;;;;;;;-148.88;92.02;75846.28;5098780;28;20027;-80
2022/08/28 01:56:07;;;;;;;13.48;5.78;;;;;;;-148.88;92.21;75852.38;5098361;28;20477;-79
2022/08/28 01:58:32;;;;;;;19.45;6.47;;;;;;;-148.88;92.23;75854.41;5098573;28;20023;-80
2022/08/28 02:00:58;;;;;;;19.58;5.88;;;;;;;-148.88;92.29;75862.53;5116048;28;20027;-79
2022/08/28 02:03:23;;;;;;;14.98;5.70;;;;;;;-148.88;92.58;75856.44;5097036;28;20114;-79
2022/08/28 02:05:49;;;;;;;23.77;7.13;;;;;;;-148.88;92.84;75856.44;5097187;28;20024;-79
2022/08/28 02:08:15;;;;;;;17.20;5.68;;;;;;;-148.88;93.20;75864.56;5097467;28;20085;-80
2022/08/28 02:10:42;;;;;;;13.43;5.75;;;;;;;-148.88;93.10;75854.41;5097504;28;20019;-78
2022/08/28 02:13:08;;;;;;;13.13;5.50;;;;;;;-148.88;93.14;75856.44;5116040;28;20024;-79
2022/08/28 02:15:35;;;;;;;15.70;6.30;;;;;;;-148.88;92.95;75858.47;5097329;28;20026;-79
2022/08/28 02:18:01;;;;;;;14.27;6.18;;;;;;;-148.88;93.29;75860.50;5097364;28;20027;-79
2022/08/28 02:20:27;;;;;;;13.80;5.75;;;;;;;-148.88;93.41;75862.53;5096951;28;20504;-79
2022/08/28 02:22:54;;;;;;;12.38;5.90;;;;;;;-148.88;93.46;75872.69;5116194;28;20027;-79
2022/08/28 02:25:19;;;;;;;19.10;6.22;;;;;;;-148.88;93.33;75866.59;5115855;28;20072;-80
2022/08/28 02:27:45;;;;;;;17.75;6.38;;;;;;;-148.88;93.26;75866.59;5097807;28;20027;-79
2022/08/28 02:30:12;;;;;;;16.45;5.43;;;;;;;-148.88;92.75;75866.59;5116039;28;20397;-79
2022/08/28 02:32:38;;;;;;;13.15;5.50;;;;;;;-148.88;92.88;75870.66;5116307;28;20027;-79
2022/08/28 02:35:05;;;;;;;16.15;5.95;;;;;;;-148.88;92.97;75874.72;5098642;28;20027;-77
2022/08/28 02:37:30;;;;;;;18.45;6.07;;;;;;;-148.88;93.00;75886.91;5116169;28;20034;-79
2022/08/28 02:39:57;;;;;;;13.32;6.25;;;;;;;-148.88;93.70;75897.06;5116702;28;20046;-79
2022/08/28 02:42:23;;;;;;;16.42;5.88;;;;;;;-148.88;93.29;75886.91;5115578;28;20509;-79
2022/08/28 02:44:48;;;;;;;19.15;6.25;;;;;;;-148.88;93.51;75886.91;5098007;28;20069;-79
2022/08/28 02:47:14;;;;;;;18.48;5.95;;;;;;;-148.88;93.81;75899.09;5098539;28;20024;-78
2022/08/28 02:49:40;;;;;;;16.17;5.70;;;;;;;-148.88;94.02;75888.94;5116077;28;20032;-79
2022/08/28 02:52:06;;;;;;;15.52;5.85;;;;;;;-148.88;93.69;75886.91;5115356;28;20367;-79
2022/08/28 02:54:31;;;;;;;13.25;6.05;;;;;;;-148.88;93.97;75890.97;5111744;22;20069;-87
2022/08/28 02:56:57;;;;;;;14.02;5.10;;;;;;;-148.88;93.87;75890.97;5092083;28;20028;-87
2022/08/28 02:59:23;;;;;;;12.55;5.35;;;;;;;-148.88;93.77;75895.03;5091008;28;20398;-86
2022/08/28 03:01:48;;;;;;;12.55;5.20;;;;;;;-148.88;93.87;75893.00;5092391;28;20020;-87
2022/08/28 03:04:14;;;;;;;13.27;5.40;;;;;;;-148.88;93.80;75880.81;5092074;28;20081;-87
2022/08/28 03:06:39;;;;;;;12.18;4.75;;;;;;;-148.88;93.67;75899.09;5092491;28;20019;-87
2022/08/28 03:09:05;;;;;;;15.63;5.50;;;;;;;-148.88;93.95;75899.09;5092420;28;20107;-87
2022/08/28 03:11:30;;;;;;;13.95;5.70;;;;;;;-148.88;93.85;75895.03;5092323;28;20028;-86
2022/08/28 03:13:55;;;;;;;14.00;5.53;;;;;;;-148.88;93.61;75901.13;5092305;28;20024;-87
2022/08/28 03:16:21;;;;;;;14.32;5.88;;;;;;;-148.88;94.35;75907.22;5091489;28;20020;-87
2022/08/28 03:18:46;;;;;;;14.88;5.70;;;;;;;-148.88;94.28;75903.16;5092147;28;20385;-87
2022/08/28 03:21:12;;;;;;;13.13;5.45;;;;;;;-148.88;94.29;75907.22;5092063;28;20016;-87
2022/08/28 03:23:38;;;;;;;13.65;5.60;;;;;;;-148.88;94.19;75913.31;5091729;28;20034;-87
2022/08/28 03:26:13;;;;;;;14.57;5.35;;;;;;;-148.88;94.10;75917.38;5091970;28;20020;-86
2022/08/28 03:28:42;;;;;;;17.00;5.40;;;;;;;-148.88;94.60;75919.41;5094398;28;20028;-87
2022/08/28 03:31:09;;;;;;;10.85;5.00;;;;;;;-148.88;94.51;75923.47;5095429;28;20432;-87
2022/08/28 03:33:35;;;;;;;13.15;5.30;;;;;;;-148.88;94.72;75915.34;5095334;28;20027;-87
2022/08/28 03:36:01;;;;;;;13.98;5.43;;;;;;;-148.88;95.07;75933.63;5095329;28;20394;-86
2022/08/28 03:38:27;;;;;;;15.32;5.30;;;;;;;-148.88;95.30;75939.72;5095342;28;20394;-86
2022/08/28 03:40:53;;;;;;;11.40;5.05;;;;;;;-148.88;94.90;75931.59;5095274;28;20031;-87
2022/08/28 03:43:21;;;;;;;12.93;5.38;;;;;;;-148.88;95.42;75947.84;5095282;28;20419;-87
2022/08/28 03:45:53;;;;;;;13.48;5.85;;;;;;;-148.88;95.04;75943.78;5095097;28;20028;-87
2022/08/28 03:48:19;;;;;;;14.68;5.82;;;;;;;-148.88;95.57;75947.84;5095146;28;20024;-85
2022/08/28 03:50:45;;;;;;;11.20;5.30;;;;;;;-148.88;95.94;75951.91;5096137;28;20069;-85
2022/08/28 03:53:11;;;;;;;14.30;5.30;;;;;;;-148.88;96.12;75951.91;5095626;28;20034;-86
2022/08/28 03:55:39;;;;;;;21.67;6.00;;;;;;;-148.88;95.80;75943.78;5095352;28;20024;-88
2022/08/28 03:58:05;;;;;;;19.35;5.75;;;;;;;-148.88;96.09;75943.78;5095288;28;20275;-86
2022/08/28 04:00:30;;;;;;;11.20;5.90;;;;;;;-148.88;95.97;75943.78;5095428;28;20128;-86
2022/08/28 04:02:56;;;;;;;16.08;5.95;;;;;;;-148.88;96.32;75951.91;5095075;28;20046;-86
2022/08/28 04:05:22;;;;;;;18.25;5.95;;;;;;;-148.88;96.31;75949.88;5093994;28;20497;-87
2022/08/28 04:07:47;;;;;;;15.80;5.85;;;;;;;-148.88;96.25;75951.91;5093944;28;20032;-87
2022/08/28 04:10:13;;;;;;;13.70;5.20;;;;;;;-148.88;96.23;75945.81;5095153;28;20507;-86
2022/08/28 04:12:38;;;;;;;13.27;5.20;;;;;;;-148.88;96.44;75943.78;5095426;28;20020;-85
2022/08/28 04:15:05;;;;;;;16.42;5.90;;;;;;;-148.88;95.91;75935.66;5095665;28;20518;-84
2022/08/28 04:17:30;;;;;;;15.82;5.40;;;;;;;-148.88;96.13;75943.78;5095822;28;20394;-84
2022/08/28 04:19:55;;;;;;;12.48;5.40;;;;;;;-148.88;95.86;75933.63;5094519;28;20443;-85
2022/08/28 04:22:21;;;;;;;12.73;5.50;;;;;;;-148.88;95.96;75945.81;5094631;28;20020;-84
2022/08/28 04:24:47;;;;;;;16.27;5.57;;;;;;;-148.88;96.27;75939.72;5094514;28;20394;-85
2022/08/28 04:27:13;;;;;;;16.65;5.50;;;;;;;-148.88;95.25;75921.44;5094636;28;20048;-84
2022/08/28 04:29:39;;;;;;;12.32;5.47;;;;;;;-148.88;95.10;75917.38;5094279;28;20389;-85
2022/08/28 04:32:05;;;;;;;11.73;4.95;;;;;;;-148.88;94.78;75905.19;5094369;28;20518;-85
2022/08/28 04:34:30;;;;;;;15.10;5.20;;;;;;;-148.88;95.13;75913.31;5094343;28;20063;-85
2022/08/28 04:36:56;;;;;;;12.77;5.70;;;;;;;-148.88;94.94;75913.31;5094191;28;20108;-84
2022/08/28 04:39:21;;;;;;;13.80;5.45;;;;;;;-148.88;95.23;75913.31;5094488;28;20020;-83
2022/08/28 04:41:48;;;;;;;9.93;5.95;;;;;;;-148.88;94.91;75913.31;5094558;28;20015;-84
2022/08/28 04:44:13;;;;;;;13.25;5.30;;;;;;;-148.88;94.73;75915.34;5094262;28;20106;-83
2022/08/28 04:46:39;;;;;;;13.75;5.90;;;;;;;-148.88;94.75;75911.28;5094098;28;20103;-84
2022/08/28 04:49:04;;;;;;;13.25;5.68;;;;;;;-148.88;94.77;75913.31;5094041;28;20028;-85
2022/08/28 04:51:30;;;;;;;11.32;5.22;;;;;;;-148.88;94.94;75911.28;5094273;28;20068;-84
2022/08/28 04:53:57;;;;;;;9.52;4.97;;;;;;;-148.88;94.60;75899.09;5094522;28;20466;-84
2022/08/28 04:56:22;;;;;;;13.07;5.60;;;;;;;-148.88;94.05;75905.19;5093234;28;20035;-83
2022/08/28 04:58:48;;;;;;;16.58;6.05;;;;;;;-148.88;94.32;75899.09;5094393;28;20024;-84
2022/08/28 05:01:18;;;;;;;14.52;6.05;;;;;;;-148.88;94.05;75911.28;5093004;28;20417;-85
2022/08/28 05:03:45;;;;;;;12.45;5.20;;;;;;;-148.88;94.12;75907.22;5094092;28;20375;-84
2022/08/28 05:06:13;;;;;;;13.35;5.50;;;;;;;-148.88;94.77;75915.34;5094681;28;20103;-84
2022/08/28 05:08:38;;;;;;;16.08;6.05;;;;;;;-148.88;95.08;75909.25;5093042;28;20034;-84
2022/08/28 05:11:18;;;;;;;11.77;5.47;;;;;;;-148.88;94.19;75901.13;5094815;28;20019;-85
2022/08/28 05:13:43;;;;;;;10.45;5.53;;;;;;;-148.88;94.19;75905.19;5094670;28;20035;-85
2022/08/28 05:16:09;;;;;;;14.13;6.05;;;;;;;-148.88;93.97;75903.16;5094117;28;20020;-83
2022/08/28 05:18:34;;;;;;;14.27;5.85;;;;;;;-148.88;93.85;75903.16;5094117;28;20027;-83
2022/08/28 05:21:00;;;;;;;10.35;4.95;;;;;;;-148.88;93.34;75893.00;5093847;28;20029;-84
2022/08/28 05:23:26;;;;;;;14.57;5.20;;;;;;;-148.88;93.43;75893.00;5092425;28;20063;-85
2022/08/28 05:25:52;;;;;;;10.73;5.05;;;;;;;-148.88;93.39;75899.09;5093597;28;20028;-85
2022/08/28 05:28:17;;;;;;;14.10;5.63;;;;;;;-148.88;94.27;75907.22;5093737;28;20031;-85
2022/08/28 05:30:43;;;;;;;12.27;5.05;;;;;;;-148.88;94.63;75907.22;5093586;28;20020;-85
2022/08/28 05:33:10;;;;;;;10.75;5.05;;;;;;;-148.88;94.41;75905.19;5093111;28;20081;-85
2022/08/28 05:35:38;;;;;;;16.63;6.32;;;;;;;-148.88;94.34;75903.16;5093409;28;20107;-84
2022/08/28 05:38:04;;;;;;;13.98;5.53;;;;;;;-148.88;94.29;75895.03;5093433;28;20024;-85
2022/08/28 05:40:30;;;;;;;16.77;5.53;;;;;;;-148.88;93.72;75890.97;5091921;28;20077;-85
2022/08/28 05:42:55;;;;;;;12.23;5.35;;;;;;;-148.88;93.33;75893.00;5093092;28;20135;-85
2022/08/28 05:45:21;;;;;;;12.68;5.28;;;;;;;-148.88;93.82;75874.72;5093045;28;20123;-85
2022/08/28 05:47:47;;;;;;;14.18;5.22;;;;;;;-148.88;93.84;75880.81;5091578;28;20054;-85
2022/08/28 05:50:12;;;;;;;13.00;5.28;;;;;;;-148.88;93.67;75874.72;5092374;28;20515;-85
2022/08/28 05:52:39;;;;;;;15.98;5.57;;;;;;;-148.88;92.91;75862.53;5093151;28;20032;-85
2022/08/28 05:55:06;;;;;;;12.27;5.30;;;;;;;-148.88;92.70;75862.53;5091826;28;20367;-85
2022/08/28 05:57:32;;;;;;;12.23;5.05;;;;;;;-148.88;92.41;75856.44;5093483;28;20052;-85
2022/08/28 05:59:57;;;;;;;13.63;4.72;;;;;;;-148.88;92.16;75854.41;5093342;28;20077;-84
2022/08/28 06:02:22;;;;;;;11.65;5.00;;;;;;;-148.88;91.88;75850.34;5093431;28;20031;-85
2022/08/28 06:04:47;;;;;;;9.50;4.43;;;;;;;-148.88;91.94;75838.16;5093241;28;20024;-85
2022/08/28 06:07:14;;;;;;;11.88;4.50;;;;;;;-148.88;91.64;75842.22;5093271;28;20027;-85
2022/08/28 06:09:40;;;;;;;11.70;4.68;;;;;;;-148.88;90.40;75825.97;5093370;28;20486;-84
2022/08/28 06:12:06;;;;;;;10.07;4.43;;;;;;;-148.88;90.58;75832.06;5093156;28;20066;-85
2022/08/28 06:14:31;;;;;;;15.70;5.20;;;;;;;-148.88;90.51;75834.09;5093100;28;20100;-84
2022/08/28 06:16:57;;;;;;;9.45;4.30;;;;;;;-148.88;90.85;75821.91;5093436;28;20478;-85
2022/08/28 06:19:25;;;;;;;10.48;4.43;;;;;;;-148.88;90.87;75817.84;5093160;28;20156;-84
2022/08/28 06:21:55;;;;;;;14.32;5.07;;;;;;;-148.88;90.53;75817.84;5093062;28;20107;-85
2022/08/28 06:24:20;;;;;;;12.40;4.68;;;;;;;-148.88;90.62;75815.81;5092896;28;20093;-85
2022/08/28 06:26:45;;;;;;;12.73;4.38;;;;;;;-148.88;90.23;75813.78;5093275;28;20470;-85
2022/08/28 06:29:14;;;;;;;10.43;4.95;;;;;;;-148.88;90.19;75813.78;5093423;28;20032;-85
2022/08/28 06:31:40;;;;;;;11.13;4.50;;;;;;;-148.88;89.93;75807.69;5093060;28;20085;-84
2022/08/28 06:34:06;;;;;;;14.70;4.80;;;;;;;-148.88;89.08;75807.69;5092729;28;20478;-84
2022/08/28 06:36:33;;;;;;;8.10;3.85;;;;;;;-148.88;88.56;75813.78;5091720;28;20020;-84
2022/08/28 06:39:00;;;;;;;14.00;4.18;;;;;;;-148.88;88.41;75807.69;5093185;28;20024;-83
2022/08/28 06:41:26;;;;;;;14.32;4.43;;;;;;;-148.88;87.49;75811.75;5093106;28;20119;-83
2022/08/28 06:43:52;;;;;;;9.73;3.85;;;;;;;-148.88;87.80;75811.75;5092591;28;20121;-84
2022/08/28 06:46:17;;;;;;;8.57;4.15;;;;;;;-148.88;87.49;75819.88;5093446;28;20493;-84
2022/08/28 06:48:43;;;;;;;11.95;3.80;;;;;;;-148.88;88.13;75809.72;5092983;28;20459;-85
2022/08/28 06:51:10;;;;;;;13.82;4.53;;;;;;;-148.88;87.01;75817.84;5092745;28;20020;-86
2022/08/28 06:53:38;;;;;;;12.43;4.20;;;;;;;-148.88;87.01;75813.78;5092620;28;20490;-86
2022/08/28 06:56:18;;;;;;;15.20;4.50;;;;;;;-148.88;87.42;75797.53;5091588;28;20042;-86
2022/08/28 06:58:45;;;;;;;11.85;4.13;;;;;;;-148.88;86.74;75785.34;5092959;28;20027;-86
2022/08/28 07:01:15;;;;;;;13.25;4.53;;;;;;;-148.88;85.51;75765.03;5092850;28;20041;-86
2022/08/28 07:03:41;;;;;;;9.88;3.80;;;;;;;-148.88;84.81;75763.00;5095125;28;20390;-87
2022/08/28 07:06:07;;;;;;;11.80;4.10;;;;;;;-148.88;85.39;75765.03;5096769;28;20100;-87
2022/08/28 07:08:34;;;;;;;10.27;3.70;;;;;;;-148.88;85.12;75765.03;5096748;28;20024;-87
2022/08/28 07:11:19;;;;;;;8.57;3.97;;;;;;;-148.88;85.03;75756.91;5096432;28;20339;-86
2022/08/28 07:13:44;;;;;;;12.10;3.97;;;;;;;-148.88;85.60;75740.66;5096421;28;20027;-87
2022/08/28 07:16:12;;;;;;;12.95;3.88;;;;;;;-148.88;84.22;75740.66;5096311;28;20110;-87
2022/08/28 07:18:38;;;;;;;9.05;3.22;;;;;;;-148.88;84.12;75738.63;5096395;28;20467;-86
2022/08/28 07:21:04;;;;;;;10.68;3.35;;;;;;;-148.88;85.06;75724.41;5095530;28;20024;-86
2022/08/28 07:23:32;;;;;;;13.23;3.55;;;;;;;-148.88;84.46;75738.63;5096337;28;20497;-86
2022/08/28 07:25:57;;;;;;;10.00;3.50;;;;;;;-148.88;83.73;75716.28;5096138;28;20028;-87
2022/08/28 07:28:23;;;;;;;14.52;3.55;;;;;;;-148.88;83.01;75710.19;5096303;28;20034;-86
2022/08/28 07:30:57;;;;;;;9.23;3.13;;;;;;;-148.88;80.08;75710.19;5096879;28;20095;-86
2022/08/28 07:33:23;;;;;;;10.50;2.90;;;;;;;-148.88;81.04;75689.88;5094680;28;20166;-86
2022/08/28 07:35:49;;;;;;;10.90;3.20;;;;;;;-148.88;79.91;75677.69;5096177;28;20070;-86
2022/08/28 07:38:14;;;;;;;10.15;3.17;;;;;;;-148.88;79.61;75695.97;5095986;28;20039;-86
2022/08/28 07:40:40;;;;;;;11.55;2.90;;;;;;;-148.88;79.79;75685.81;5096669;28;20028;-85
2022/08/28 07:45:57;;;;;;;10.95;3.22;;;;;;;-148.88;80.33;75681.75;5096842;28;20551;-86
2022/08/28 07:48:22;;;;;;;13.43;4.00;;;;;;;-148.88;80.69;75689.88;5096363;28;20513;-86
2022/08/28 07:50:52;;;;;;;10.18;3.22;;;;;;;-148.88;81.56;75687.84;5096380;28;20049;-86
2022/08/28 07:53:19;;;;;;;7.75;3.15;;;;;;;-148.88;81.06;75673.63;5095735;28;20035;-86
2022/08/28 07:55:47;;;;;;;9.15;2.83;;;;;;;-148.88;81.86;75663.47;5095859;28;20028;-85
2022/08/28 07:58:12;;;;;;;7.47;3.00;;;;;;;-148.88;79.71;75651.28;5095936;28;20032;-85
2022/08/28 08:00:38;;;;;;;10.98;2.80;;;;;;;-148.88;77.25;75639.09;5094360;28;20046;-86
2022/08/28 08:03:03;;;;;;;7.78;2.58;;;;;;;-148.88;76.28;75624.88;5096222;28;20062;-85
2022/08/28 08:05:29;;;;;;;12.70;3.00;;;;;;;-148.88;75.19;75594.44;5095237;28;20107;-88
2022/08/28 08:07:54;;;;;;;9.02;2.95;;;;;;;-148.88;73.00;75582.22;5094399;28;20492;-86
2022/08/28 08:10:25;;;;;;;10.10;2.80;;;;;;;-148.88;72.61;75568.03;5094214;28;20020;-86
2022/08/28 08:12:51;;;;;;;11.98;2.80;;;;;;;-148.88;71.21;75574.13;5094685;28;20024;-85
2022/08/28 08:15:16;;;;;;;8.00;2.63;;;;;;;-148.88;69.07;75557.88;5093996;28;20072;-84
2022/08/28 08:17:41;;;;;;;10.45;3.08;;;;;;;-148.88;68.93;75523.34;5095535;28;20027;-86
2022/08/28 08:20:07;;;;;;;9.07;2.75;;;;;;;-148.88;69.90;75513.19;5094152;28;20169;-86
2022/08/28 08:22:34;;;;;;;9.38;2.78;;;;;;;-148.88;67.93;75529.44;5094363;28;20422;-85
2022/08/28 08:25:00;;;;;;;8.43;2.58;;;;;;;-148.88;67.40;75521.31;5094604;28;20024;-87
2022/08/28 08:27:26;;;;;;;11.13;2.70;;;;;;;-148.88;67.43;75501.00;5095197;28;20024;-84
2022/08/28 08:29:51;;;;;;;8.10;2.63;;;;;;;-148.88;67.49;75519.28;5094108;28;20028;-85
2022/08/28 08:32:17;;;;;;;11.80;3.38;;;;;;;-148.88;67.83;75486.78;5095033;28;20371;-85
2022/08/28 08:37:10;;;;;;;12.32;2.70;;;;;;;-148.88;65.50;75415.69;5079605;28;20055;-78
2022/08/28 08:39:36;;;;;;;7.93;2.50;;;;;;;-148.88;64.70;75427.88;5079255;28;20116;-77
2022/08/28 08:42:05;;;;;;;8.05;2.42;;;;;;;-148.88;63.73;75464.44;5075999;28;20052;-77
2022/08/28 08:44:45;;;;;;;8.02;2.60;;;;;;;-148.88;63.87;75423.81;5075562;28;20024;-78
2022/08/28 08:47:42;;;;;;;7.47;2.70;;;;;;;-148.88;63.57;75462.41;5080568;28;20036;-78
2022/08/28 08:50:17;;;;;;;7.43;2.55;;;;;;;-148.88;64.58;75454.28;5078425;28;20478;-77
2022/08/28 08:53:11;;;;;;;10.45;2.80;;;;;;;-148.88;63.04;75360.84;5075685;28;20123;-78
2022/08/28 08:55:44;;;;;;;;;;;;;;;-148.88;63.40;75431.94;5075727;28;20028;-78
2022/08/28 08:58:15;;;;;;;9.15;2.67;;;;;;;-148.88;64.35;75431.94;5076215;28;19908;-78
2022/08/28 09:01:13;;;;;;;7.43;2.70;;;;;;;-148.88;63.89;75456.31;5075823;28;20024;-78
2022/08/28 09:03:38;;;;;;;8.93;2.30;;;;;;;-148.88;62.25;75393.34;5042844;28;20064;-78
2022/08/28 09:06:04;;;;;;;7.35;2.72;;;;;;;-148.88;62.08;75375.06;5076167;28;20075;-78
2022/08/28 09:08:34;;;;;;;8.90;2.55;;;;;;;-148.88;62.46;75397.41;5075509;28;20111;-77
2022/08/28 09:11:38;;;;;;;7.30;2.67;;;;;;;-148.88;61.77;75391.31;5074827;28;20519;-77
2022/08/28 09:14:19;;;;;;;7.72;2.35;;;;;;;-148.88;60.91;75364.91;5068502;28;20033;-77
2022/08/28 09:16:45;;;;;;;7.75;2.15;;;;;;;-148.88;61.61;75336.47;5074419;28;20024;-77
2022/08/28 09:19:16;;;;;;;9.55;2.47;;;;;;;-148.88;62.19;75338.50;5074491;28;20514;-77
2022/08/28 09:21:43;;;;;;;8.05;2.47;;;;;;;-148.88;61.30;75387.25;5075262;28;20024;-77
2022/08/28 09:24:29;;;;;;;5.53;2.38;;;;;;;-148.88;57.51;75334.44;5075037;28;20112;-78
2022/08/28 09:26:56;;;;;;;7.47;2.42;;;;;;;-148.88;57.41;75322.25;5074967;28;20035;-78
2022/08/28 09:29:31;;;;;;;8.77;2.42;;;;;;;-148.88;56.47;75289.75;5075255;28;20031;-78
2022/08/28 09:31:57;;;;;;;8.32;2.30;;;;;;;-148.88;57.08;75314.13;5076439;28;20052;-78
2022/08/28 09:34:33;;;;;;;7.07;2.17;;;;;;;-148.88;56.37;75314.13;5075353;28;20021;-78
2022/08/28 09:36:59;;;;;;;9.65;2.35;;;;;;;-148.88;57.34;75269.47;5074383;28;20441;-78
2022/08/28 09:39:34;;;;;;;10.20;2.85;;;;;;;-148.88;56.67;75301.94;5075095;28;20107;-78
2022/08/28 09:45:13;;;;;;;7.65;2.63;;;;;;;-148.88;57.01;75324.28;5073963;28;20393;-77
2022/08/28 09:47:50;;;;;;;7.07;2.33;;;;;;;-148.88;57.15;75287.72;5073602;28;20039;-77
2022/08/28 09:50:22;;;;;;;5.38;2.20;;;;;;;-148.88;55.78;75245.09;5073069;28;20032;-77
2022/08/28 09:52:48;;;;;;;9.40;2.90;;;;;;;-148.88;55.54;75324.28;5074144;28;20099;-77
2022/08/28 09:55:22;;;;;;;9.32;2.67;;;;;;;-148.88;56.19;75316.16;5073929;28;20031;-77
2022/08/28 09:57:47;;;;;;;9.38;2.60;;;;;;;-148.88;56.83;75287.72;5073909;28;20017;-77
2022/08/28 10:00:13;;;;;;;5.95;2.13;;;;;;;-148.88;55.56;75269.47;5074282;28;20346;-76
2022/08/28 10:03:13;;;;;;;7.78;2.40;;;;;;;-148.88;54.26;75214.63;5074710;28;20024;-78
2022/08/28 10:06:12;;;;;;;6.78;2.40;;;;;;;-148.88;52.23;75184.16;5074838;28;20042;-77
2022/08/28 10:08:53;;;;;;;7.18;2.08;;;;;;;-148.88;53.08;75125.25;5068129;28;20036;-79
2022/08/28 10:11:46;;;;;;;7.18;1.90;;;;;;;-148.88;51.25;75082.63;5073094;28;20158;-77
2022/08/28 10:14:32;;;;;;;8.05;2.25;;;;;;;-148.88;50.05;75145.56;5074404;28;20017;-78
2022/08/28 10:17:04;;;;;;;9.13;2.17;;;;;;;-148.88;51.35;75161.81;5074296;28;20024;-78
2022/08/28 10:20:16;;;;;;;5.20;1.92;;;;;;;-148.88;51.85;75102.91;5074308;28;20440;-78
2022/08/28 10:22:47;;;;;;;7.60;2.33;;;;;;;-148.88;49.20;75042.00;5037844;28;20378;-77
2022/08/28 10:25:22;;;;;;;7.45;1.95;;;;;;;-148.88;50.42;75098.84;5073630;28;20023;-77
2022/08/28 10:28:21;;;;;;;7.07;1.70;;;;;;;-148.88;52.52;75192.28;5072597;28;20036;-77
2022/08/28 10:30:54;;;;;;;8.25;2.40;;;;;;;-148.88;54.03;75289.75;5073982;28;20374;-77
2022/08/28 10:33:42;;;;;;;8.10;2.05;;;;;;;-148.88;51.85;75245.09;5074046;28;20359;-77
2022/08/28 10:36:20;;;;;;;8.43;2.42;;;;;;;-148.88;50.97;75159.78;5072885;28;20039;-77
2022/08/28 10:38:51;;;;;;;7.60;2.35;;;;;;;-148.88;49.80;75153.69;5076715;28;20025;-77
2022/08/28 10:41:56;;;;;;;9.85;2.33;;;;;;;-148.88;48.68;75074.50;5078243;28;20458;-78
2022/08/28 10:45:04;;;;;;;9.38;2.50;;;;;;;-148.88;49.46;75092.78;5077027;28;20044;-77
2022/08/28 10:47:32;;;;;;;6.05;2.20;;;;;;;-148.88;49.32;75037.94;5078648;28;20052;-78
2022/08/28 10:50:03;;;;;;;5.63;2.10;;;;;;;-148.88;50.61;75115.09;5077611;28;20385;-78
2022/08/28 10:52:39;;;;;;;6.70;2.30;;;;;;;-148.88;49.09;75161.81;5077617;28;20059;-78
2022/08/28 10:55:17;;;;;;;7.70;2.10;;;;;;;-148.88;48.81;75094.81;5082035;28;20108;-78
2022/08/28 10:58:06;;;;;;;6.88;2.38;;;;;;;-148.88;47.94;75039.97;5084783;28;20378;-79
2022/08/28 11:00:33;;;;;;;9.52;2.60;;;;;;;-148.88;48.83;75021.69;5080079;28;20028;-78
2022/08/28 11:03:07;;;;;;;9.57;2.25;;;;;;;-148.88;47.94;74995.28;5078661;28;20031;-78
2022/08/28 11:05:48;;;;;;;6.00;2.30;;;;;;;-148.88;47.38;75042.00;5079156;28;20019;-78
2022/08/28 11:08:51;;;;;;;6.15;2.00;;;;;;;-148.88;48.66;75131.34;5079612;28;20029;-77
2022/08/28 11:11:41;;;;;;;6.43;2.17;;;;;;;-148.88;47.30;75029.81;4980626;28;20053;-77
2022/08/28 11:14:07;;;;;;;6.70;2.10;;;;;;;-148.88;46.49;75017.63;5075860;28;20367;-77
2022/08/28 11:16:32;;;;;;;6.82;2.10;;;;;;;-148.88;47.06;74956.69;5076865;28;20031;-78
2022/08/28 11:19:40;;;;;;;7.33;1.80;;;;;;;-148.88;46.15;74936.41;5078500;28;20043;-78
2022/08/28 11:22:21;;;;;;;7.88;2.13;;;;;;;-148.88;45.37;74972.94;5065667;28;20295;-77
2022/08/28 11:24:55;;;;;;;6.43;2.08;;;;;;;-148.88;47.12;75058.25;5076126;28;20017;-77
2022/08/28 11:27:33;;;;;;;5.60;2.17;;;;;;;-148.88;47.55;74960.75;5076077;28;20024;-77
2022/08/28 11:30:10;;;;;;;7.25;1.85;;;;;;;-148.88;45.59;74940.47;5076926;28;20116;-77
2022/08/28 11:32:50;;;;;;;5.88;2.10;;;;;;;-148.88;46.84;75009.50;5076412;28;20035;-77
2022/08/28 11:35:40;;;;;;;6.28;2.10;;;;;;;-148.88;45.85;75011.53;5076107;28;20040;-77